Time;durP1;ratioP1;P1;durP2;ratioP2;P2;SDS_P1;SDS_P2;PMS_P1;PMS_P2;Temp;Humidity;BMP_temperature;BMP_pressure;BME280_temperature;BME280_humidity;BME280_pressure;Samples;Min_cycle;Max_cycle;Signal;HPM_P1;HPM_P2
2023/07/08 00:00:47;;;;;;;10.50;4.30;;;19.20;74.40;;;;;;4878196;28;92663;-75
2023/07/08 00:03:14;;;;;;;8.50;4.78;;;19.10;75.80;;;;;;4879085;28;92802;-75
2023/07/08 00:05:40;;;;;;;9.55;4.10;;;19.00;75.90;;;;;;4877310;28;93286;-75
2023/07/08 00:08:07;;;;;;;7.13;4.63;;;18.90;77.10;;;;;;4877546;28;93516;-75
2023/07/08 00:10:33;;;;;;;7.88;4.03;;;18.80;77.60;;;;;;4877152;28;93094;-75
2023/07/08 00:12:59;;;;;;;7.18;3.67;;;18.80;77.10;;;;;;4877452;28;92597;-76
2023/07/08 00:15:27;;;;;;;9.27;4.35;;;18.80;78.10;;;;;;4877860;28;93772;-75
2023/07/08 00:17:53;;;;;;;7.57;4.50;;;18.70;78.30;;;;;;4876265;28;92675;-75
2023/07/08 00:20:35;;;;;;;9.63;4.40;;;18.60;77.90;;;;;;4878066;28;92694;-75
2023/07/08 00:23:01;;;;;;;8.82;4.25;;;18.60;77.60;;;;;;4877960;28;95076;-75
2023/07/08 00:25:27;;;;;;;6.80;4.65;;;18.60;78.80;;;;;;4877511;28;93580;-75
2023/07/08 00:27:53;;;;;;;7.93;4.25;;;18.60;79.30;;;;;;4877146;28;93337;-75
2023/07/08 00:30:21;;;;;;;10.18;4.97;;;18.50;78.80;;;;;;4878523;28;93177;-75
2023/07/08 00:32:47;;;;;;;6.30;4.13;;;18.50;79.00;;;;;;4876961;28;92262;-75
2023/07/08 00:35:13;;;;;;;11.32;4.88;;;18.40;78.90;;;;;;4876965;28;92811;-75
2023/07/08 00:37:39;;;;;;;12.10;5.03;;;18.40;79.20;;;;;;4876289;28;93507;-75
2023/07/08 00:40:22;;;;;;;8.77;5.25;;;18.40;79.40;;;;;;4876113;28;93745;-75
2023/07/08 00:42:48;;;;;;;6.83;4.77;;;18.30;80.10;;;;;;4876261;28;92672;-75
2023/07/08 00:45:34;;;;;;;7.38;4.97;;;18.30;80.70;;;;;;4874389;28;95110;-75
2023/07/08 00:48:27;;;;;;;8.95;4.88;;;18.20;80.30;;;;;;4865306;28;92981;-75
2023/07/08 00:50:52;;;;;;;7.78;4.85;;;18.20;80.80;;;;;;4872990;28;93102;-75
2023/07/08 00:53:25;;;;;;;5.68;4.25;;;18.10;81.10;;;;;;4876670;28;92847;-75
2023/07/08 00:56:15;;;;;;;6.53;4.53;;;18.10;81.50;;;;;;4877111;28;94333;-75
2023/07/08 00:58:48;;;;;;;7.45;4.85;;;18.10;81.80;;;;;;4876675;28;94087;-75
2023/07/08 01:01:15;;;;;;;7.80;5.10;;;18.00;82.80;;;;;;4876868;28;92279;-75
2023/07/08 01:04:22;;;;;;;12.55;5.10;;;17.90;82.70;;;;;;4876520;28;92992;-75
2023/07/08 01:06:56;;;;;;;9.48;4.50;;;17.80;83.00;;;;;;4867322;28;94141;-76
2023/07/08 01:09:36;;;;;;;10.10;5.32;;;17.80;83.20;;;;;;4876062;28;96479;-76
2023/07/08 01:12:05;;;;;;;9.20;5.10;;;17.80;83.90;;;;;;4876902;28;92794;-75
2023/07/08 01:14:34;;;;;;;9.48;4.57;;;17.70;84.30;;;;;;4875354;28;92754;-76
2023/07/08 01:17:00;;;;;;;9.50;5.47;;;17.70;84.40;;;;;;4875397;28;93390;-75
2023/07/08 01:19:32;;;;;;;8.45;5.05;;;17.70;84.50;;;;;;4875325;28;92817;-75
2023/07/08 01:22:01;;;;;;;11.30;4.97;;;17.70;85.50;;;;;;4875646;28;92409;-75
2023/07/08 01:24:29;;;;;;;8.63;4.90;;;17.70;85.10;;;;;;4868876;28;92493;-76
2023/07/08 01:26:56;;;;;;;9.45;4.75;;;17.60;85.10;;;;;;4874950;28;93429;-76
2023/07/08 01:29:22;;;;;;;7.53;5.15;;;17.60;85.40;;;;;;4876371;28;93448;-76
2023/07/08 01:31:48;;;;;;;8.25;4.75;;;17.60;85.40;;;;;;4876722;28;93884;-76
2023/07/08 01:34:16;;;;;;;11.57;5.43;;;17.60;85.40;;;;;;4876643;28;93161;-75
2023/07/08 01:36:52;;;;;;;7.47;5.18;;;17.50;85.40;;;;;;4875291;28;94119;-75
2023/07/08 01:39:22;;;;;;;9.95;5.65;;;17.50;85.40;;;;;;4859812;28;95993;-75
2023/07/08 01:41:48;;;;;;;9.00;5.60;;;17.50;85.40;;;;;;4874752;28;92554;-75
2023/07/08 01:44:33;;;;;;;8.63;5.25;;;17.50;85.60;;;;;;4876281;28;92449;-76
2023/07/08 01:47:02;;;;;;;10.80;5.70;;;17.40;85.10;;;;;;4875316;28;96537;-75
2023/07/08 01:49:29;;;;;;;11.63;5.63;;;17.40;85.30;;;;;;4875986;28;93626;-75
2023/07/08 01:51:56;;;;;;;10.77;5.57;;;17.40;85.90;;;;;;4874568;28;92742;-75
2023/07/08 01:54:21;;;;;;;10.55;6.32;;;17.30;86.10;;;;;;4876534;28;92440;-75
2023/07/08 01:56:51;;;;;;;11.68;5.75;;;17.30;86.30;;;;;;4875660;28;94211;-75
2023/07/08 01:59:17;;;;;;;8.80;5.55;;;17.20;86.50;;;;;;4875413;28;94435;-75
2023/07/08 02:01:42;;;;;;;10.85;5.35;;;17.20;86.40;;;;;;4875674;28;92717;-75
2023/07/08 02:04:08;;;;;;;11.52;5.20;;;17.30;86.70;;;;;;4876757;28;93105;-75
2023/07/08 02:06:33;;;;;;;7.93;4.97;;;17.20;88.50;;;;;;4876720;28;92738;-75
2023/07/08 02:08:59;;;;;;;7.57;4.80;;;17.20;87.70;;;;;;4873031;28;94870;-75
2023/07/08 02:11:25;;;;;;;9.30;4.80;;;17.10;87.50;;;;;;4875084;28;93025;-75
2023/07/08 02:13:50;;;;;;;9.32;5.35;;;17.10;87.60;;;;;;4875427;28;92849;-75
2023/07/08 02:16:16;;;;;;;11.73;4.82;;;17.10;88.60;;;;;;4876043;28;94570;-75
2023/07/08 02:18:43;;;;;;;7.25;4.78;;;17.00;88.80;;;;;;4876404;28;93695;-75
2023/07/08 02:21:08;;;;;;;8.10;5.38;;;17.00;89.40;;;;;;4876398;28;93208;-76
2023/07/08 02:23:34;;;;;;;10.75;5.40;;;17.00;89.20;;;;;;4875469;28;92884;-74
2023/07/08 02:26:00;;;;;;;9.23;5.30;;;16.90;89.60;;;;;;4874942;28;93741;-76
2023/07/08 02:28:26;;;;;;;7.05;4.65;;;16.90;89.40;;;;;;4875238;28;92824;-75
2023/07/08 02:30:51;;;;;;;9.20;5.53;;;16.90;89.30;;;;;;4876916;28;92552;-76
2023/07/08 02:33:17;;;;;;;7.97;5.35;;;16.90;89.90;;;;;;4876704;28;92940;-75
2023/07/08 02:35:44;;;;;;;7.18;4.93;;;16.80;89.50;;;;;;4875557;28;93356;-75
2023/07/08 02:38:10;;;;;;;11.52;5.10;;;16.80;89.30;;;;;;4874973;28;92843;-75
2023/07/08 02:40:35;;;;;;;7.47;5.32;;;16.80;90.10;;;;;;4876036;28;92382;-76
2023/07/08 02:43:01;;;;;;;7.75;5.35;;;16.80;90.00;;;;;;4874229;28;92718;-76
2023/07/08 02:45:27;;;;;;;7.30;4.72;;;16.80;90.10;;;;;;4874284;28;94258;-75
2023/07/08 02:47:52;;;;;;;7.45;5.00;;;16.70;89.90;;;;;;4873873;28;94960;-75
2023/07/08 02:50:18;;;;;;;6.63;4.70;;;16.70;90.00;;;;;;4874767;28;92920;-76
2023/07/08 02:52:44;;;;;;;7.22;5.15;;;16.70;90.00;;;;;;4874528;28;92940;-75
2023/07/08 02:55:10;;;;;;;8.93;5.28;;;16.70;90.10;;;;;;4874362;28;93141;-76
2023/07/08 02:57:35;;;;;;;7.57;4.60;;;16.70;90.60;;;;;;4874475;28;93084;-75
2023/07/08 03:00:04;;;;;;;8.52;5.55;;;16.70;90.60;;;;;;4875865;28;92692;-75
2023/07/08 03:02:29;;;;;;;12.10;5.82;;;16.60;90.80;;;;;;4874552;28;91648;-75
2023/07/08 03:04:58;;;;;;;10.73;5.65;;;16.60;91.10;;;;;;4872372;28;96823;-75
2023/07/08 03:07:24;;;;;;;10.10;6.03;;;16.50;91.10;;;;;;4857087;28;96194;-75
2023/07/08 03:09:50;;;;;;;11.32;6.43;;;16.50;91.50;;;;;;4876238;28;93430;-75
2023/07/08 03:12:16;;;;;;;8.45;5.72;;;16.40;91.80;;;;;;4877953;28;92896;-76
2023/07/08 03:14:41;;;;;;;8.45;5.50;;;16.40;92.10;;;;;;4877514;28;94128;-75
2023/07/08 03:17:07;;;;;;;13.40;6.07;;;16.40;91.90;;;;;;4877827;28;93154;-75
2023/07/08 03:19:33;;;;;;;8.77;5.68;;;16.40;92.10;;;;;;4878072;28;92659;-75
2023/07/08 03:21:59;;;;;;;10.52;5.38;;;16.50;92.00;;;;;;4878205;28;92921;-75
2023/07/08 03:24:24;;;;;;;12.15;6.32;;;16.50;91.80;;;;;;4878918;28;93657;-75
2023/07/08 03:26:54;;;;;;;10.35;6.63;;;16.50;92.30;;;;;;4877923;28;92455;-75
2023/07/08 03:29:20;;;;;;;11.43;6.68;;;16.50;92.40;;;;;;4877824;28;92993;-76
2023/07/08 03:31:45;;;;;;;7.78;5.93;;;16.50;92.20;;;;;;4878538;28;92430;-76
2023/07/08 03:34:13;;;;;;;9.15;6.60;;;16.50;92.00;;;;;;4877485;28;94086;-75
2023/07/08 03:36:48;;;;;;;9.73;5.88;;;16.50;91.90;;;;;;4877414;28;94816;-75
2023/07/08 03:39:18;;;;;;;11.55;5.90;;;16.60;91.60;;;;;;4878903;28;92793;-75
2023/07/08 03:41:45;;;;;;;10.27;7.30;;;16.60;91.60;;;;;;4877346;28;92760;-75
2023/07/08 03:44:11;;;;;;;11.85;6.78;;;16.60;92.00;;;;;;4877225;28;94053;-75
2023/07/08 03:46:39;;;;;;;10.25;6.53;;;16.60;91.90;;;;;;4878178;28;93358;-76
2023/07/08 03:49:05;;;;;;;11.60;6.25;;;16.60;91.90;;;;;;4877459;28;92691;-76
2023/07/08 03:51:35;;;;;;;11.10;6.47;;;16.60;91.60;;;;;;4877223;28;91897;-76
2023/07/08 03:54:02;;;;;;;9.32;6.32;;;16.60;91.70;;;;;;4875393;28;98815;-75
2023/07/08 03:56:27;;;;;;;9.05;5.97;;;16.60;91.50;;;;;;4876668;28;93555;-75
2023/07/08 03:58:53;;;;;;;11.43;6.07;;;16.60;91.40;;;;;;4876459;28;93698;-75
2023/07/08 04:01:21;;;;;;;11.50;6.10;;;16.50;91.50;;;;;;4877131;28;92889;-75
2023/07/08 04:03:47;;;;;;;9.40;6.38;;;16.50;91.50;;;;;;4877680;28;93788;-76
2023/07/08 04:06:13;;;;;;;7.47;5.32;;;16.50;91.40;;;;;;4876644;28;93427;-76
2023/07/08 04:08:39;;;;;;;10.25;5.97;;;16.50;91.40;;;;;;4875348;28;92474;-76
2023/07/08 04:11:05;;;;;;;7.20;5.43;;;16.60;91.70;;;;;;4876360;28;92903;-76
2023/07/08 04:13:31;;;;;;;9.13;6.10;;;16.50;91.60;;;;;;4877300;28;92823;-75
2023/07/08 04:16:01;;;;;;;9.60;5.63;;;16.50;91.80;;;;;;4878221;28;92929;-75
2023/07/08 04:18:27;;;;;;;8.38;6.10;;;16.50;91.90;;;;;;4878107;28;92827;-76
2023/07/08 04:20:53;;;;;;;15.27;6.13;;;16.50;92.00;;;;;;4875597;28;92472;-77
2023/07/08 04:23:27;;;;;;;8.13;5.88;;;16.50;92.00;;;;;;4876397;28;94687;-76
2023/07/08 04:25:56;;;;;;;8.85;5.80;;;16.40;92.10;;;;;;4876477;28;94330;-76
2023/07/08 04:28:21;;;;;;;9.77;6.05;;;16.40;92.00;;;;;;4877480;28;92322;-76
2023/07/08 04:30:48;;;;;;;11.93;6.28;;;16.50;92.30;;;;;;4876522;28;92884;-76
2023/07/08 04:33:15;;;;;;;9.63;5.90;;;16.50;92.30;;;;;;4878011;28;92957;-76
2023/07/08 04:35:42;;;;;;;8.02;5.80;;;16.50;92.20;;;;;;4876912;28;100184;-75
2023/07/08 04:38:21;;;;;;;9.45;5.65;;;16.50;92.30;;;;;;4876310;28;92763;-75
2023/07/08 04:40:47;;;;;;;11.25;6.03;;;16.60;92.10;;;;;;4876574;28;91877;-75
2023/07/08 04:43:14;;;;;;;7.00;5.05;;;16.60;92.30;;;;;;4876674;28;92581;-76
2023/07/08 04:45:41;;;;;;;9.23;5.85;;;16.60;92.20;;;;;;4876173;28;93345;-75
2023/07/08 04:48:13;;;;;;;10.63;5.93;;;16.70;92.50;;;;;;4876561;28;93710;-76
2023/07/08 04:50:48;;;;;;;9.70;6.00;;;16.70;92.50;;;;;;4875610;28;92549;-75
2023/07/08 04:53:13;;;;;;;9.57;5.00;;;16.70;92.60;;;;;;4875171;28;93035;-75
2023/07/08 04:55:46;;;;;;;9.23;6.55;;;16.80;92.30;;;;;;4876397;28;92875;-76
2023/07/08 04:58:12;;;;;;;12.85;6.50;;;16.80;92.40;;;;;;4877449;28;93036;-75
2023/07/08 05:00:38;;;;;;;15.25;6.82;;;16.90;92.50;;;;;;4875342;28;93188;-75
2023/07/08 05:03:03;;;;;;;10.98;6.55;;;16.90;92.70;;;;;;4876538;28;93575;-75
2023/07/08 05:05:29;;;;;;;9.75;6.15;;;17.00;92.60;;;;;;4875986;28;92926;-75
2023/07/08 05:07:55;;;;;;;10.40;6.45;;;17.00;92.80;;;;;;4876236;28;92504;-75
2023/07/08 05:10:21;;;;;;;8.65;6.15;;;17.10;92.70;;;;;;4875585;28;93782;-75
2023/07/08 05:12:47;;;;;;;10.20;6.70;;;17.20;92.50;;;;;;4874841;28;93876;-75
2023/07/08 05:15:13;;;;;;;7.30;5.88;;;17.30;92.60;;;;;;4875565;28;93211;-75
2023/07/08 05:17:39;;;;;;;9.95;5.93;;;17.40;92.50;;;;;;4876055;28;92773;-75
2023/07/08 05:20:10;;;;;;;14.65;6.97;;;17.50;92.50;;;;;;4874572;28;92203;-75
2023/07/08 05:22:36;;;;;;;14.18;7.30;;;17.60;92.20;;;;;;4874845;28;92587;-75
2023/07/08 05:25:03;;;;;;;9.20;5.90;;;17.70;91.80;;;;;;4875019;28;92729;-75
2023/07/08 05:27:29;;;;;;;13.45;6.38;;;17.80;91.70;;;;;;4877203;28;92786;-75
2023/07/08 05:29:55;;;;;;;11.10;6.30;;;17.90;91.40;;;;;;4875447;28;91813;-76
2023/07/08 05:32:20;;;;;;;13.30;6.97;;;18.10;91.20;;;;;;4874391;28;93272;-75
2023/07/08 05:34:46;;;;;;;11.68;7.72;;;18.10;91.00;;;;;;4876710;28;94302;-75
2023/07/08 05:37:13;;;;;;;10.75;6.70;;;18.20;90.70;;;;;;4875742;28;93606;-75
2023/07/08 05:39:39;;;;;;;12.45;7.03;;;18.40;90.70;;;;;;4873844;28;93520;-76
2023/07/08 05:42:05;;;;;;;9.18;6.53;;;18.50;90.50;;;;;;4875034;28;94457;-75
2023/07/08 05:44:31;;;;;;;10.35;6.72;;;18.60;90.20;;;;;;4874958;28;93939;-76
2023/07/08 05:46:56;;;;;;;10.32;6.53;;;18.70;90.10;;;;;;4875516;28;92761;-75
2023/07/08 05:49:22;;;;;;;10.73;6.50;;;18.90;89.90;;;;;;4875929;28;92573;-75
2023/07/08 05:51:47;;;;;;;13.70;6.85;;;19.00;89.30;;;;;;4865834;28;96657;-75
2023/07/08 05:54:14;;;;;;;13.50;6.47;;;19.10;88.70;;;;;;4877186;28;94285;-75
2023/07/08 05:56:40;;;;;;;10.13;6.63;;;19.20;88.20;;;;;;4875830;28;92912;-75
2023/07/08 05:59:06;;;;;;;11.63;6.32;;;19.40;87.80;;;;;;4875552;28;92741;-76
2023/07/08 06:01:32;;;;;;;12.20;6.63;;;19.50;87.70;;;;;;4866500;28;96289;-76
2023/07/08 06:04:00;;;;;;;9.38;5.82;;;19.70;87.50;;;;;;4871348;28;94425;-76
2023/07/08 06:06:27;;;;;;;8.93;6.00;;;19.90;87.10;;;;;;4872143;28;92771;-76
2023/07/08 06:08:53;;;;;;;8.63;6.32;;;20.00;86.50;;;;;;4854952;28;93101;-78
2023/07/08 06:11:19;;;;;;;11.70;6.50;;;20.10;85.90;;;;;;4871269;28;96744;-77
2023/07/08 06:13:44;;;;;;;11.98;6.70;;;20.30;85.50;;;;;;4855423;28;96719;-77
2023/07/08 06:16:10;;;;;;;15.38;8.18;;;20.50;85.50;;;;;;4872188;28;92651;-77
2023/07/08 06:18:36;;;;;;;14.40;10.02;;;20.60;84.30;;;;;;4873658;28;92154;-77
2023/07/08 06:21:01;;;;;;;23.83;15.25;;;20.80;83.30;;;;;;4873052;28;93947;-77
2023/07/08 06:23:28;;;;;;;29.88;19.17;;;20.90;81.70;;;;;;4872542;28;93447;-77
2023/07/08 06:25:53;;;;;;;28.48;18.55;;;21.10;80.60;;;;;;4873664;28;93493;-77
2023/07/08 06:28:20;;;;;;;30.63;18.70;;;21.20;79.10;;;;;;4874152;28;92751;-78
2023/07/08 06:30:46;;;;;;;28.50;18.35;;;21.40;78.20;;;;;;4874235;28;93858;-80
2023/07/08 06:33:12;;;;;;;30.05;17.75;;;21.50;77.90;;;;;;4876626;28;93278;-80
2023/07/08 06:35:39;;;;;;;25.10;16.08;;;21.70;79.00;;;;;;4877060;28;93102;-78
2023/07/08 06:38:06;;;;;;;21.50;14.43;;;21.90;78.80;;;;;;4875390;28;93131;-79
2023/07/08 06:40:32;;;;;;;17.33;12.25;;;22.10;79.50;;;;;;4860486;28;96195;-79
2023/07/08 06:42:57;;;;;;;16.02;10.00;;;22.20;78.30;;;;;;4877022;28;93189;-79
2023/07/08 06:45:23;;;;;;;13.75;9.50;;;22.40;78.20;;;;;;4867369;28;92722;-78
2023/07/08 06:47:49;;;;;;;16.10;8.10;;;22.60;77.90;;;;;;4878022;28;92958;-80
2023/07/08 06:50:14;;;;;;;15.45;7.70;;;22.80;77.10;;;;;;4862211;28;97990;-80
2023/07/08 06:52:40;;;;;;;14.32;7.82;;;22.90;76.50;;;;;;4862829;28;97229;-80
2023/07/08 06:55:08;;;;;;;10.63;7.40;;;23.10;76.20;;;;;;4880042;28;92987;-80
2023/07/08 06:57:34;;;;;;;11.23;7.63;;;23.30;75.90;;;;;;4863390;28;92784;-80
2023/07/08 07:00:00;;;;;;;16.48;8.13;;;23.40;75.70;;;;;;4879893;28;93733;-79
2023/07/08 07:02:27;;;;;;;13.38;8.40;;;23.70;75.10;;;;;;4880787;28;93707;-80
2023/07/08 07:04:52;;;;;;;12.38;7.57;;;23.80;72.70;;;;;;4879519;28;92500;-80
2023/07/08 07:07:18;;;;;;;13.10;8.45;;;24.00;72.80;;;;;;4862945;28;92153;-80
2023/07/08 07:09:44;;;;;;;13.93;8.70;;;24.20;71.30;;;;;;4879241;28;93272;-79
2023/07/08 07:12:09;;;;;;;13.13;8.55;;;24.40;71.20;;;;;;4879223;28;93032;-79
2023/07/08 07:14:35;;;;;;;10.95;6.95;;;24.60;70.80;;;;;;4878710;28;93912;-79
2023/07/08 07:17:01;;;;;;;11.93;7.50;;;24.80;70.90;;;;;;4879807;28;92857;-79
2023/07/08 07:19:27;;;;;;;14.05;8.43;;;25.00;70.40;;;;;;4870218;28;96399;-79
2023/07/08 07:21:53;;;;;;;15.43;8.35;;;25.20;70.00;;;;;;4880305;28;94303;-79
2023/07/08 07:24:18;;;;;;;14.23;8.73;;;25.40;71.00;;;;;;4863955;28;92646;-79
2023/07/08 07:26:44;;;;;;;13.10;8.35;;;25.60;68.80;;;;;;4879243;28;92609;-80
2023/07/08 07:29:10;;;;;;;14.52;8.80;;;25.80;68.90;;;;;;4879688;28;94322;-79
2023/07/08 07:31:36;;;;;;;17.00;9.82;;;26.00;68.40;;;;;;4879583;28;93833;-79
2023/07/08 07:34:02;;;;;;;12.93;8.65;;;26.20;65.80;;;;;;4879353;28;92994;-80
2023/07/08 07:36:28;;;;;;;14.63;8.57;;;26.40;68.20;;;;;;4880200;28;92918;-79
2023/07/08 07:38:55;;;;;;;15.25;8.75;;;26.50;64.80;;;;;;4876760;28;96344;-79
2023/07/08 07:41:21;;;;;;;15.85;9.30;;;26.70;66.00;;;;;;4879840;28;94430;-79
2023/07/08 07:43:47;;;;;;;17.52;9.40;;;27.00;64.30;;;;;;4891406;28;93130;-79
2023/07/08 07:46:13;;;;;;;18.00;9.15;;;27.10;61.90;;;;;;4868959;28;92639;-79
2023/07/08 07:48:39;;;;;;;11.77;8.40;;;27.40;64.10;;;;;;4885282;28;93333;-79
2023/07/08 07:51:07;;;;;;;13.23;7.97;;;27.60;64.60;;;;;;4881733;28;93474;-79
2023/07/08 07:53:32;;;;;;;20.08;8.65;;;27.80;63.60;;;;;;4880076;28;92816;-79
2023/07/08 07:56:00;;;;;;;14.10;7.70;;;28.00;62.20;;;;;;4880930;28;92074;-79
2023/07/08 07:58:26;;;;;;;12.38;7.93;;;28.20;60.50;;;;;;4879350;28;93360;-79
2023/07/08 08:00:52;;;;;;;11.45;7.25;;;28.50;60.20;;;;;;4879676;28;93039;-79
2023/07/08 08:03:17;;;;;;;14.75;7.88;;;28.70;60.80;;;;;;4881058;28;93381;-79
2023/07/08 08:05:43;;;;;;;13.02;7.00;;;28.90;59.40;;;;;;4879420;28;92803;-79
2023/07/08 08:08:09;;;;;;;12.05;7.50;;;29.10;58.80;;;;;;4880334;28;92906;-79
2023/07/08 08:10:35;;;;;;;13.30;7.63;;;29.30;57.30;;;;;;4879779;28;92976;-79
2023/07/08 08:13:02;;;;;;;11.68;7.38;;;29.50;57.90;;;;;;4879236;28;92779;-79
2023/07/08 08:15:28;;;;;;;17.38;9.18;;;29.70;57.90;;;;;;4882109;28;92684;-79
2023/07/08 08:17:54;;;;;;;11.77;7.05;;;30.00;56.90;;;;;;4880124;28;92611;-79
2023/07/08 08:20:22;;;;;;;12.70;7.72;;;30.10;56.10;;;;;;4880066;28;94172;-78
2023/07/08 08:22:48;;;;;;;10.75;6.35;;;30.30;56.50;;;;;;4880696;28;93088;-79
2023/07/08 08:25:15;;;;;;;14.88;7.90;;;30.50;55.00;;;;;;4880158;28;93451;-79
2023/07/08 08:27:41;;;;;;;14.25;7.10;;;30.70;50.40;;;;;;4877264;28;94850;-79
2023/07/08 08:30:07;;;;;;;12.07;7.15;;;30.80;54.60;;;;;;4885503;28;94877;-79
2023/07/08 08:32:33;;;;;;;11.45;7.68;;;31.00;53.60;;;;;;4869006;28;92544;-78
2023/07/08 08:34:59;;;;;;;10.90;7.68;;;31.10;51.60;;;;;;4863439;28;92664;-80
2023/07/08 08:37:25;;;;;;;10.00;6.97;;;31.30;50.50;;;;;;4879707;28;93619;-78
2023/07/08 08:39:50;;;;;;;20.27;9.00;;;31.40;53.50;;;;;;4861865;28;95940;-78
2023/07/08 08:42:42;;;;;;;11.68;7.10;;;31.70;50.90;;;;;;4880925;28;92695;-79
2023/07/08 08:45:12;;;;;;;13.52;6.57;;;31.90;51.70;;;;;;4879225;28;93470;-79
2023/07/08 08:47:42;;;;;;;10.57;7.20;;;32.10;54.10;;;;;;4880257;28;94958;-79
2023/07/08 08:50:16;;;;;;;9.30;6.90;;;32.30;51.90;;;;;;4879345;28;93481;-79
2023/07/08 08:52:42;;;;;;;12.20;7.15;;;32.50;52.40;;;;;;4880890;28;93580;-78
2023/07/08 08:55:12;;;;;;;13.95;8.07;;;32.70;51.90;;;;;;4880536;28;92855;-79
2023/07/08 08:57:47;;;;;;;10.95;7.50;;;32.80;48.50;;;;;;4879665;28;93048;-78
2023/07/08 09:00:18;;;;;;;9.38;6.63;;;33.00;51.00;;;;;;4877950;28;94219;-78
2023/07/08 09:02:52;;;;;;;9.30;6.70;;;33.20;51.80;;;;;;4877814;28;92708;-79
2023/07/08 09:05:18;;;;;;;11.13;6.63;;;33.20;48.20;;;;;;4875218;28;93067;-78
2023/07/08 09:08:02;;;;;;;12.23;7.22;;;33.20;50.80;;;;;;4875109;28;93855;-78
2023/07/08 09:10:42;;;;;;;13.90;7.22;;;33.40;50.90;;;;;;4876275;28;93446;-78
2023/07/08 09:13:30;;;;;;;8.90;7.07;;;33.60;48.80;;;;;;4876376;28;93074;-78
2023/07/08 09:16:07;;;;;;;10.77;7.07;;;33.70;48.60;;;;;;4867719;28;93093;-77
2023/07/08 09:18:58;;;;;;;12.25;7.97;;;33.80;48.70;;;;;;4876953;28;94628;-77
2023/07/08 09:21:34;;;;;;;10.18;6.60;;;33.70;46.10;;;;;;4876239;28;100778;-78
2023/07/08 09:24:07;;;;;;;8.20;6.30;;;33.70;49.40;;;;;;4859876;28;92727;-78
2023/07/08 09:26:33;;;;;;;9.07;6.47;;;34.00;49.40;;;;;;4876102;28;92769;-77
2023/07/08 09:28:59;;;;;;;10.18;6.80;;;34.20;49.80;;;;;;4877001;28;93604;-78
2023/07/08 09:31:31;;;;;;;9.23;6.10;;;34.40;50.00;;;;;;4874888;28;95967;-79
2023/07/08 09:34:11;;;;;;;9.20;6.83;;;34.60;45.90;;;;;;4876498;28;92898;-79
2023/07/08 09:36:41;;;;;;;9.73;7.28;;;34.80;48.80;;;;;;4877445;28;91827;-78
2023/07/08 09:39:14;;;;;;;11.10;7.25;;;34.90;47.40;;;;;;4876469;28;94262;-79
2023/07/08 09:41:40;;;;;;;;;;;35.00;46.30;;;;;;4867935;28;96383;-79
2023/07/08 09:44:13;;;;;;;13.13;7.28;;;35.00;46.30;;;;;;4877592;28;95456;-79
2023/07/08 09:46:40;;;;;;;11.15;7.13;;;35.10;46.20;;;;;;4875967;28;92531;-79
2023/07/08 09:49:25;;;;;;;11.57;6.78;;;35.30;45.00;;;;;;4874970;28;93952;-78
2023/07/08 09:51:52;;;;;;;12.60;7.85;;;35.40;47.60;;;;;;4874298;28;95079;-79
2023/07/08 09:54:22;;;;;;;15.60;6.93;;;35.50;43.60;;;;;;4860330;28;92472;-78
2023/07/08 09:57:04;;;;;;;8.35;6.47;;;35.50;44.40;;;;;;4875329;28;92231;-79
2023/07/08 09:59:46;;;;;;;12.20;7.35;;;35.60;45.70;;;;;;4874015;28;97056;-79
2023/07/08 10:02:31;;;;;;;10.53;6.63;;;35.80;45.70;;;;;;4875320;28;95177;-79
2023/07/08 10:05:00;;;;;;;7.90;6.20;;;36.00;47.70;;;;;;4876383;28;92719;-79
2023/07/08 10:07:30;;;;;;;11.27;6.90;;;36.20;43.80;;;;;;4859447;28;92417;-79
2023/07/08 10:10:00;;;;;;;11.13;7.07;;;36.30;47.00;;;;;;4872951;28;96851;-79
2023/07/08 10:12:26;;;;;;;10.38;7.32;;;36.50;46.30;;;;;;4858593;28;97424;-79
2023/07/08 10:14:58;;;;;;;7.82;6.35;;;36.80;45.70;;;;;;4876551;28;92700;-79
2023/07/08 10:17:23;;;;;;;10.70;6.47;;;37.00;46.50;;;;;;4858748;28;92831;-79
2023/07/08 10:19:49;;;;;;;8.25;6.22;;;37.20;47.30;;;;;;4874064;28;95662;-79
2023/07/08 10:22:48;;;;;;;9.02;6.60;;;37.50;46.50;;;;;;4876349;28;93238;-79
2023/07/08 10:25:40;;;;;;;9.52;6.82;;;37.70;46.40;;;;;;4876174;28;93103;-78
2023/07/08 10:28:24;;;;;;;10.15;6.65;;;38.00;45.20;;;;;;4875232;28;91778;-79
2023/07/08 10:31:16;;;;;;;9.60;6.70;;;38.30;46.20;;;;;;4874606;28;95589;-78
2023/07/08 10:34:20;;;;;;;10.13;7.15;;;38.50;44.40;;;;;;4875577;28;93048;-79
2023/07/08 10:37:18;;;;;;;10.45;6.25;;;38.60;44.00;;;;;;4876093;28;93861;-79
2023/07/08 10:39:54;;;;;;;10.93;6.43;;;38.80;44.40;;;;;;4874740;28;92688;-78
2023/07/08 10:42:27;;;;;;;8.98;6.68;;;38.80;40.30;;;;;;4876442;28;94277;-78
2023/07/08 10:45:06;;;;;;;10.35;6.18;;;38.80;42.90;;;;;;4875413;28;93284;-78
2023/07/08 10:48:04;;;;;;;7.85;6.50;;;39.10;44.00;;;;;;4865941;28;95077;-80
2023/07/08 10:50:55;;;;;;;10.20;7.10;;;39.20;40.50;;;;;;4832732;28;92864;-79
2023/07/08 10:53:52;;;;;;;11.18;6.57;;;39.40;42.40;;;;;;4874491;28;94839;-79
2023/07/08 10:56:20;;;;;;;11.63;6.90;;;39.60;42.70;;;;;;4877737;28;92402;-79
2023/07/08 10:58:48;;;;;;;11.55;6.82;;;39.60;38.90;;;;;;4867970;28;92496;-79
2023/07/08 11:01:27;;;;;;;9.88;6.57;;;39.50;40.90;;;;;;4874323;28;92754;-79
2023/07/08 11:04:02;;;;;;;9.68;6.57;;;39.40;41.20;;;;;;4858979;28;97942;-79
2023/07/08 11:07:04;;;;;;;8.15;5.93;;;39.60;40.50;;;;;;4877196;28;94598;-79
2023/07/08 11:09:40;;;;;;;9.82;6.30;;;39.80;42.00;;;;;;4857550;28;92638;-79
2023/07/08 11:12:28;;;;;;;12.00;6.68;;;40.00;41.10;;;;;;4860296;28;92138;-78
2023/07/08 11:15:17;;;;;;;10.75;6.35;;;40.20;41.40;;;;;;4861782;28;94592;-79
2023/07/08 11:17:52;;;;;;;7.65;6.10;;;40.30;41.00;;;;;;4875245;28;93494;-78
2023/07/08 11:20:40;;;;;;;7.40;6.03;;;40.50;41.40;;;;;;4876895;28;93003;-79
2023/07/08 11:23:51;;;;;;;9.82;6.00;;;40.60;41.00;;;;;;4877805;28;91748;-79
2023/07/08 11:27:04;;;;;;;8.07;6.38;;;40.90;40.50;;;;;;4851342;28;93754;-80
2023/07/08 11:29:58;;;;;;;9.53;5.77;;;40.90;38.40;;;;;;4845621;28;95276;-80
2023/07/08 11:32:28;;;;;;;8.15;6.15;;;40.80;41.00;;;;;;4881480;28;94200;-80
2023/07/08 11:34:57;;;;;;;10.73;6.22;;;41.00;40.80;;;;;;4864449;28;93163;-80
2023/07/08 11:37:23;;;;;;;9.63;6.03;;;41.20;39.90;;;;;;4879280;28;94154;-80
2023/07/08 11:40:00;;;;;;;7.72;6.38;;;41.40;40.20;;;;;;4880923;28;93754;-80
2023/07/08 11:42:40;;;;;;;11.10;6.38;;;41.50;39.50;;;;;;4880841;28;92672;-80
2023/07/08 11:45:34;;;;;;;11.75;6.68;;;41.50;40.30;;;;;;4881178;28;92396;-80
2023/07/08 11:48:13;;;;;;;8.32;5.63;;;41.60;39.20;;;;;;4879465;28;93460;-82
2023/07/08 11:50:46;;;;;;;7.93;5.75;;;41.70;39.40;;;;;;4860956;28;96176;-78
2023/07/08 11:53:37;;;;;;;11.88;6.45;;;41.70;39.40;;;;;;4878985;28;92641;-79
2023/07/08 11:56:11;;;;;;;8.73;6.15;;;41.90;37.40;;;;;;4849258;28;92964;-80
2023/07/08 11:58:49;;;;;;;9.10;6.20;;;41.90;38.00;;;;;;4878050;28;94174;-79
2023/07/08 12:01:17;;;;;;;9.73;6.35;;;41.90;37.00;;;;;;4881587;28;93836;-79
2023/07/08 12:03:55;;;;;;;6.97;5.95;;;41.60;35.20;;;;;;4878014;28;92775;-79
2023/07/08 12:06:48;;;;;;;8.65;6.43;;;41.40;37.50;;;;;;4877882;28;93028;-79
2023/07/08 12:09:38;;;;;;;8.93;5.82;;;41.40;39.80;;;;;;4877872;28;94477;-79
2023/07/08 12:12:28;;;;;;;8.20;6.03;;;41.60;38.80;;;;;;4870173;28;93410;-80
2023/07/08 12:15:01;;;;;;;7.72;5.72;;;41.60;38.20;;;;;;4877541;28;92753;-79
2023/07/08 12:17:27;;;;;;;6.65;5.45;;;41.60;39.60;;;;;;4880066;28;91921;-79
2023/07/08 12:19:55;;;;;;;6.93;5.68;;;41.60;38.30;;;;;;4875665;28;93694;-80
2023/07/08 12:22:21;;;;;;;7.93;5.97;;;41.80;38.60;;;;;;4878199;28;93020;-80
2023/07/08 12:24:46;;;;;;;8.80;5.50;;;42.10;38.60;;;;;;4877083;28;94076;-80
2023/07/08 12:27:12;;;;;;;8.57;5.15;;;42.40;37.70;;;;;;4877508;28;93234;-80
2023/07/08 12:29:38;;;;;;;9.00;5.53;;;42.60;39.60;;;;;;4876067;28;93660;-80
2023/07/08 12:32:04;;;;;;;8.40;5.38;;;42.90;38.50;;;;;;4878409;28;93247;-80
2023/07/08 12:34:31;;;;;;;8.98;5.75;;;43.00;37.00;;;;;;4859811;28;93474;-80
2023/07/08 12:36:57;;;;;;;9.10;5.38;;;43.10;36.60;;;;;;4877187;28;92641;-80
2023/07/08 12:39:23;;;;;;;9.10;5.47;;;43.10;37.30;;;;;;4875548;28;94102;-80
2023/07/08 12:41:49;;;;;;;10.43;5.85;;;43.10;33.70;;;;;;4858868;28;95120;-80
2023/07/08 12:44:21;;;;;;;7.18;5.38;;;43.00;34.20;;;;;;4876946;28;92651;-80
2023/07/08 12:46:48;;;;;;;7.80;5.75;;;42.90;35.70;;;;;;4876596;28;92725;-80
2023/07/08 12:49:16;;;;;;;9.82;5.60;;;43.00;34.10;;;;;;4875846;28;94247;-80
2023/07/08 12:51:44;;;;;;;8.85;5.63;;;43.10;34.40;;;;;;4864831;28;95443;-80
2023/07/08 12:54:11;;;;;;;7.15;5.60;;;42.80;35.10;;;;;;4873609;28;92995;-80
2023/07/08 12:56:38;;;;;;;8.73;5.38;;;42.50;35.30;;;;;;4874394;28;92900;-81